createdAt,value
2023-05-19T00:00:00.884Z,2.60
2023-05-19T00:02:42.747Z,2.83
2023-05-19T00:08:14.144Z,2.00
2023-05-19T00:11:03.794Z,2.38
2023-05-19T00:13:55.996Z,2.45
2023-05-19T00:16:29.817Z,1.95
2023-05-19T00:19:38.715Z,2.03
2023-05-19T00:22:11.581Z,2.65
2023-05-19T00:24:44.647Z,2.28
2023-05-19T00:27:19.655Z,2.33
2023-05-19T00:29:50.230Z,2.63
2023-05-19T00:35:19.638Z,2.03
2023-05-19T00:37:56.331Z,2.20
2023-05-19T00:42:56.582Z,2.38
2023-05-19T00:45:46.348Z,2.33
2023-05-19T00:48:24.061Z,2.38
2023-05-19T00:51:04.702Z,2.28
2023-05-19T00:53:48.710Z,2.25
2023-05-19T00:56:20.878Z,2.67
2023-05-19T00:58:52.145Z,2.67
2023-05-19T01:01:22.531Z,2.33
2023-05-19T01:04:04.977Z,2.25
2023-05-19T01:06:39.219Z,2.78
2023-05-19T01:09:09.206Z,2.42
2023-05-19T01:11:41.059Z,2.20
2023-05-19T01:14:19.349Z,1.83
2023-05-19T01:16:56.706Z,2.42
2023-05-19T01:19:39.963Z,2.45
2023-05-19T01:22:41.158Z,2.63
2023-05-19T01:26:14.860Z,2.72
2023-05-19T01:29:07.515Z,2.05
2023-05-19T01:31:47.806Z,2.35
2023-05-19T01:34:18.915Z,3.25
2023-05-19T01:36:50.610Z,2.70
2023-05-19T01:39:21.275Z,2.47
2023-05-19T01:41:52.907Z,2.60
2023-05-19T01:44:25.159Z,2.35
2023-05-19T01:46:56.337Z,2.50
2023-05-19T01:49:41.601Z,2.65
2023-05-19T01:52:10.542Z,2.80
2023-05-19T01:54:39.124Z,3.05
2023-05-19T01:57:20.078Z,2.90
2023-05-19T01:59:59.711Z,2.47
2023-05-19T02:02:40.171Z,2.47
2023-05-19T02:05:20.188Z,2.45
2023-05-19T02:08:06.685Z,2.58
2023-05-19T02:10:41.698Z,2.33
2023-05-19T02:16:08.443Z,2.58
2023-05-19T02:19:00.507Z,2.55
2023-05-19T02:21:34.230Z,2.40
2023-05-19T02:24:14.456Z,2.42
2023-05-19T02:26:48.973Z,2.92
2023-05-19T02:29:18.132Z,2.38
2023-05-19T02:31:53.228Z,2.42
2023-05-19T02:34:28.789Z,2.40
2023-05-19T02:36:57.822Z,1.95
2023-05-19T02:39:35.301Z,2.30
2023-05-19T02:44:57.535Z,2.55
2023-05-19T02:47:36.116Z,2.60
2023-05-19T02:50:11.060Z,2.20
2023-05-19T02:52:50.274Z,2.22
2023-05-19T02:55:18.979Z,2.13
2023-05-19T02:57:53.725Z,1.92
2023-05-19T03:00:25.341Z,2.13
2023-05-19T03:03:02.939Z,2.92
2023-05-19T03:05:37.411Z,2.00
2023-05-19T03:08:09.433Z,1.85
2023-05-19T03:10:49.713Z,2.10
2023-05-19T03:13:23.975Z,2.45
2023-05-19T03:15:57.122Z,2.38
2023-05-19T03:18:30.311Z,2.30
2023-05-19T03:21:04.468Z,2.25
2023-05-19T03:23:49.099Z,2.15
2023-05-19T03:26:20.801Z,2.40
2023-05-19T03:28:49.828Z,2.47
2023-05-19T03:31:18.506Z,2.60
2023-05-19T03:33:50.422Z,2.22
2023-05-19T03:36:32.387Z,2.33
2023-05-19T03:39:04.146Z,2.65
2023-05-19T03:41:33.082Z,2.80
2023-05-19T03:44:02.163Z,3.00
2023-05-19T03:46:33.577Z,2.60
2023-05-19T03:49:04.701Z,2.45
2023-05-19T03:54:21.229Z,2.60
2023-05-19T03:59:54.304Z,2.35
2023-05-19T04:02:28.695Z,2.28
2023-05-19T04:05:14.284Z,2.73
2023-05-19T04:08:03.631Z,2.92
2023-05-19T04:15:08.820Z,2.55
2023-05-19T04:18:11.214Z,3.72
2023-05-19T04:21:01.377Z,4.00
2023-05-19T04:23:34.750Z,3.80
2023-05-19T04:26:06.901Z,3.53
2023-05-19T04:29:00.758Z,2.95
2023-05-19T04:31:54.583Z,3.40
2023-05-19T04:34:26.339Z,3.20
2023-05-19T04:37:00.044Z,3.15
2023-05-19T04:42:30.929Z,2.90
2023-05-19T04:45:03.843Z,2.40
2023-05-19T04:47:38.304Z,3.28
2023-05-19T04:50:23.986Z,2.92
2023-05-19T04:53:22.030Z,3.40
2023-05-19T04:55:54.494Z,3.15
2023-05-19T04:58:28.645Z,3.13
2023-05-19T05:01:06.480Z,2.97
2023-05-19T05:03:36.672Z,3.40
2023-05-19T05:06:07.820Z,2.75
2023-05-19T05:08:42.489Z,2.80
2023-05-19T05:11:18.958Z,2.67
2023-05-19T05:14:11.596Z,2.20
2023-05-19T05:16:44.403Z,2.40
2023-05-19T05:19:28.675Z,2.60
2023-05-19T05:21:58.505Z,2.92
2023-05-19T05:24:28.741Z,2.60
2023-05-19T05:27:05.834Z,2.40
2023-05-19T05:29:45.984Z,2.15
2023-05-19T05:32:26.910Z,2.33
2023-05-19T05:35:03.139Z,1.95
2023-05-19T05:37:49.084Z,2.30
2023-05-19T05:40:20.014Z,2.65
2023-05-19T05:42:54.781Z,2.33
2023-05-19T05:45:47.320Z,2.17
2023-05-19T05:48:19.137Z,2.45
2023-05-19T05:51:07.676Z,2.72
2023-05-19T05:56:34.433Z,2.30
2023-05-19T05:59:10.040Z,2.55
2023-05-19T06:01:42.297Z,2.47
2023-05-19T06:04:23.720Z,2.40
2023-05-19T06:07:01.229Z,2.13
2023-05-19T06:09:39.087Z,2.95
2023-05-19T06:12:15.321Z,2.40
2023-05-19T06:15:03.453Z,2.05
2023-05-19T06:17:35.997Z,1.92
2023-05-19T06:20:06.071Z,2.10
2023-05-19T06:22:39.415Z,1.90
2023-05-19T06:25:10.283Z,2.17
2023-05-19T06:27:39.268Z,2.35
2023-05-19T06:30:13.969Z,2.15
2023-05-19T06:32:43.816Z,1.83
2023-05-19T06:35:13.279Z,2.10
2023-05-19T06:37:42.283Z,2.15
2023-05-19T06:40:16.303Z,1.95
2023-05-19T06:42:45.101Z,2.17
2023-05-19T06:45:22.005Z,1.90
2023-05-19T06:47:54.427Z,2.03
2023-05-19T06:50:28.072Z,2.00
2023-05-19T06:53:39.133Z,2.42
2023-05-19T06:56:11.573Z,2.22
2023-05-19T06:58:40.089Z,2.20
2023-05-19T07:01:15.559Z,2.30
2023-05-19T07:03:47.932Z,2.03
2023-05-19T07:06:17.190Z,2.20
2023-05-19T07:08:56.142Z,2.13
2023-05-19T07:11:26.540Z,2.30
2023-05-19T07:13:55.531Z,2.03
2023-05-19T07:16:29.437Z,2.25
2023-05-19T07:18:58.461Z,2.47
2023-05-19T07:21:30.943Z,2.20
2023-05-19T07:24:02.677Z,2.05
2023-05-19T07:26:33.927Z,2.30
2023-05-19T07:29:02.780Z,2.35
2023-05-19T07:31:33.096Z,1.90
2023-05-19T07:34:01.870Z,2.40
2023-05-19T07:36:30.751Z,2.22
2023-05-19T07:38:59.728Z,1.98
2023-05-19T07:41:28.931Z,2.05
2023-05-19T07:43:59.634Z,2.22
2023-05-19T07:46:35.598Z,2.20
2023-05-19T07:49:06.997Z,2.35
2023-05-19T07:51:35.828Z,2.30
2023-05-19T07:54:04.745Z,1.95
2023-05-19T07:56:36.731Z,2.33
2023-05-19T07:59:05.438Z,2.20
2023-05-19T08:01:33.939Z,1.95
2023-05-19T08:04:02.667Z,2.20
2023-05-19T08:06:35.717Z,2.10
2023-05-19T08:09:07.046Z,2.60
2023-05-19T08:11:37.192Z,2.25
2023-05-19T08:14:08.066Z,2.42
2023-05-19T08:16:40.139Z,2.67
2023-05-19T08:19:11.784Z,2.45
2023-05-19T08:21:42.676Z,2.17
2023-05-19T08:24:14.864Z,2.20
2023-05-19T08:26:45.242Z,2.08
2023-05-19T08:29:26.390Z,2.45
2023-05-19T08:32:33.207Z,2.58
2023-05-19T08:35:02.665Z,2.55
2023-05-19T08:37:37.400Z,2.58
2023-05-19T08:40:07.140Z,2.50
2023-05-19T08:50:06.373Z,2.33
2023-05-19T08:52:58.967Z,2.25
2023-05-19T08:56:14.957Z,2.42
2023-05-19T08:59:30.119Z,2.38
2023-05-19T09:02:50.345Z,2.60
2023-05-19T09:05:33.959Z,2.35
2023-05-19T09:08:05.578Z,2.30
2023-05-19T09:10:34.430Z,2.53
2023-05-19T09:13:38.919Z,2.35
2023-05-19T09:16:08.498Z,2.60
2023-05-19T09:18:58.579Z,2.65
2023-05-19T09:21:37.679Z,2.25
2023-05-19T09:24:08.109Z,2.60
2023-05-19T09:26:40.996Z,2.25
2023-05-19T09:29:36.295Z,2.67
2023-05-19T09:32:15.292Z,2.53
2023-05-19T09:35:00.052Z,2.53
2023-05-19T09:37:49.556Z,2.40
2023-05-19T09:40:42.918Z,2.40
2023-05-19T09:43:17.486Z,2.72
2023-05-19T09:53:20.186Z,2.60
2023-05-19T09:56:29.418Z,2.42
2023-05-19T09:59:34.232Z,2.70
2023-05-19T10:02:33.224Z,2.60
2023-05-19T10:05:20.621Z,2.63
2023-05-19T10:08:30.315Z,2.53
2023-05-19T10:11:28.208Z,2.55
2023-05-19T10:13:59.837Z,2.83
2023-05-19T10:16:38.092Z,2.22
2023-05-19T10:19:48.344Z,2.63
2023-05-19T10:23:19.482Z,2.30
2023-05-19T10:26:45.755Z,2.78
2023-05-19T10:29:44.226Z,2.92
2023-05-19T10:32:53.364Z,2.50
2023-05-19T10:36:24.060Z,2.75
2023-05-19T10:42:28.063Z,2.88
2023-05-19T10:45:14.261Z,2.47
2023-05-19T10:48:00.519Z,2.83
2023-05-19T10:51:29.861Z,2.72
2023-05-19T10:54:41.664Z,2.70
2023-05-19T10:57:38.393Z,2.50
2023-05-19T11:00:29.269Z,2.60
2023-05-19T11:03:27.032Z,2.70
2023-05-19T11:10:08.021Z,2.63
2023-05-19T11:12:58.190Z,2.65
2023-05-19T11:15:49.562Z,2.65
2023-05-19T11:18:26.772Z,2.60
2023-05-19T11:31:04.348Z,2.47
2023-05-19T11:33:37.188Z,2.70
2023-05-19T11:36:44.660Z,2.67
2023-05-19T11:39:28.591Z,2.60
2023-05-19T11:41:58.000Z,2.60
2023-05-19T11:44:39.714Z,2.40
2023-05-19T13:02:34.183Z,2.40
2023-05-19T13:05:41.353Z,2.30
2023-05-19T13:08:30.428Z,2.42
2023-05-19T13:11:23.192Z,2.33
2023-05-19T13:14:22.900Z,2.50
2023-05-19T13:17:28.696Z,2.50
2023-05-19T13:20:09.850Z,2.50
2023-05-19T13:22:44.868Z,2.38
2023-05-19T13:28:40.266Z,2.60
2023-05-19T13:31:41.480Z,2.30
2023-05-19T13:34:44.250Z,2.60
2023-05-19T13:37:23.194Z,2.58
2023-05-19T13:39:53.742Z,2.22
2023-05-19T13:42:25.486Z,2.60
2023-05-19T13:44:57.107Z,2.70
2023-05-19T13:47:43.336Z,2.55
2023-05-19T13:50:17.804Z,2.13
2023-05-19T13:53:03.506Z,2.60
2023-05-19T13:55:48.216Z,2.63
2023-05-19T13:58:38.780Z,2.53
2023-05-19T14:01:36.530Z,2.65
2023-05-19T14:04:08.930Z,2.57
2023-05-19T14:06:47.979Z,2.20
2023-05-19T14:12:15.814Z,2.55
2023-05-19T14:14:44.692Z,2.90
2023-05-19T14:17:14.018Z,2.70
2023-05-19T14:19:48.165Z,2.45
2023-05-19T14:22:21.592Z,2.75
2023-05-19T14:28:33.502Z,3.00
2023-05-19T14:34:45.898Z,3.30
2023-05-19T14:37:24.363Z,3.35
2023-05-19T14:40:01.005Z,3.50
2023-05-19T14:42:35.612Z,3.15
2023-05-19T14:45:36.048Z,3.15
2023-05-19T14:48:40.292Z,3.58
2023-05-19T14:51:09.441Z,3.10
2023-05-19T14:53:42.797Z,3.20
2023-05-19T14:56:22.475Z,3.03
2023-05-19T14:59:00.053Z,3.22
2023-05-19T15:01:41.421Z,3.10
2023-05-19T15:04:20.659Z,3.10
2023-05-19T15:12:51.437Z,3.08
2023-05-19T15:22:56.613Z,3.15
2023-05-19T15:26:27.522Z,3.30
2023-05-19T15:29:49.883Z,3.03
2023-05-19T15:39:50.917Z,3.30
2023-05-19T15:49:36.463Z,3.17
2023-05-19T15:52:08.612Z,3.50
2023-05-19T15:54:40.301Z,3.50
2023-05-19T15:57:13.671Z,2.90
2023-05-19T15:59:43.502Z,3.28
2023-05-19T16:02:13.228Z,3.03
2023-05-19T16:04:43.580Z,3.47
2023-05-19T16:07:12.992Z,3.35
2023-05-19T16:09:42.283Z,3.20
2023-05-19T16:12:12.008Z,3.30
2023-05-19T16:14:43.768Z,3.35
2023-05-19T16:17:13.889Z,3.67
2023-05-19T16:19:44.259Z,3.20
2023-05-19T16:25:52.395Z,3.45
2023-05-19T16:32:33.899Z,3.22
2023-05-19T16:36:23.450Z,3.40
2023-05-19T16:46:52.464Z,3.60
2023-05-19T16:49:34.666Z,3.53
2023-05-19T16:52:13.884Z,3.55
2023-05-19T16:57:14.420Z,3.55
2023-05-19T16:59:43.398Z,3.80
2023-05-19T17:02:12.873Z,3.50
2023-05-19T17:04:41.886Z,3.38
2023-05-19T17:07:19.966Z,3.55
2023-05-19T17:09:49.282Z,3.47
2023-05-19T17:12:20.707Z,3.70
2023-05-19T17:14:50.517Z,3.78
2023-05-19T17:17:19.701Z,3.63
2023-05-19T17:19:48.863Z,3.63
2023-05-19T17:22:21.743Z,3.85
2023-05-19T17:24:50.625Z,3.22
2023-05-19T17:27:19.653Z,3.60
2023-05-19T17:29:48.668Z,3.58
2023-05-19T17:32:17.227Z,3.50
2023-05-19T17:34:46.224Z,3.55
2023-05-19T17:37:17.624Z,3.58
2023-05-19T17:39:48.293Z,3.50
2023-05-19T17:42:17.178Z,3.70
2023-05-19T17:44:46.061Z,3.85
2023-05-19T17:47:20.759Z,3.53
2023-05-19T17:49:50.337Z,3.95
2023-05-19T17:52:19.313Z,3.53
2023-05-19T17:54:51.351Z,3.40
2023-05-19T17:57:25.552Z,3.70
2023-05-19T17:59:54.900Z,3.65
2023-05-19T18:02:24.246Z,3.65
2023-05-19T18:04:54.335Z,3.42
2023-05-19T18:07:28.320Z,3.15
2023-05-19T18:10:02.069Z,3.55
2023-05-19T18:12:33.836Z,4.05
2023-05-19T18:15:03.003Z,3.50
2023-05-19T18:17:31.816Z,4.07
2023-05-19T18:20:00.003Z,3.78
2023-05-19T18:22:31.506Z,3.83
2023-05-19T18:25:04.155Z,3.90
2023-05-19T18:27:33.576Z,3.90
2023-05-19T18:30:05.706Z,3.92
2023-05-19T18:32:34.921Z,4.05
2023-05-19T18:35:10.035Z,3.60
2023-05-19T18:37:39.721Z,3.45
2023-05-19T18:40:10.555Z,3.85
2023-05-19T18:42:38.960Z,3.90
2023-05-19T18:45:10.711Z,4.15
2023-05-19T18:47:39.331Z,4.00
2023-05-19T18:50:09.396Z,4.80
2023-05-19T18:52:38.643Z,4.20
2023-05-19T18:55:07.639Z,4.55
2023-05-19T18:57:38.568Z,4.35
2023-05-19T19:00:08.092Z,4.28
2023-05-19T19:02:37.397Z,4.05
2023-05-19T19:05:09.562Z,4.25
2023-05-19T19:08:34.932Z,4.68
2023-05-19T19:17:32.697Z,4.18
2023-05-19T19:20:22.811Z,4.00
2023-05-19T19:26:48.379Z,3.72
2023-05-19T19:33:34.106Z,4.28
2023-05-19T19:40:39.866Z,4.00
2023-05-19T19:48:21.378Z,4.20
2023-05-19T19:51:18.761Z,4.55
2023-05-19T20:05:46.591Z,3.65
2023-05-19T20:08:52.680Z,4.20
2023-05-19T21:07:16.143Z,4.40
2023-05-19T21:42:25.858Z,4.55
2023-05-19T21:52:41.892Z,4.10
2023-05-19T23:00:21.439Z,4.53
2023-05-19T23:08:07.949Z,4.15
2023-05-19T23:22:30.403Z,4.25
2023-05-19T23:51:13.811Z,3.85
2023-05-19T23:56:44.500Z,4.80
